createdAt,value
2023-02-21T07:31:08.996Z,10.25
2023-02-21T07:32:14.909Z,8.00
2023-02-21T07:33:19.078Z,11.00
2023-02-21T07:34:25.530Z,11.75
2023-02-21T07:35:40.955Z,10.50
2023-02-21T07:36:58.024Z,10.00
2023-02-21T07:38:01.903Z,12.75
2023-02-21T08:18:09.373Z,2.00
2023-02-21T08:24:49.257Z,2.25
2023-02-21T08:27:16.402Z,1.00
2023-02-21T08:28:28.561Z,1.50
2023-02-21T08:29:31.859Z,2.00
2023-02-21T08:30:36.250Z,3.75
2023-02-21T08:31:41.636Z,2.50
2023-02-21T08:32:48.916Z,1.50
2023-02-21T08:33:53.169Z,1.75
2023-02-21T08:34:57.109Z,2.00
2023-02-21T08:36:01.008Z,4.75
2023-02-21T08:37:05.614Z,3.50
2023-02-21T08:38:09.525Z,1.75
2023-02-21T08:39:15.775Z,2.50
2023-02-21T08:40:21.076Z,2.25
2023-02-21T08:41:26.327Z,2.50
2023-02-21T08:42:29.849Z,3.25
2023-02-21T08:43:33.637Z,4.00
2023-02-21T08:44:37.533Z,4.50
2023-02-21T08:45:41.211Z,5.00
2023-02-21T08:46:49.716Z,4.75
2023-02-21T08:47:53.213Z,5.50
2023-02-21T08:48:56.929Z,4.50
2023-02-21T08:50:01.226Z,4.50
2023-02-21T08:51:05.011Z,3.50
2023-02-21T08:52:08.808Z,4.50
2023-02-21T08:53:14.928Z,3.00
2023-02-21T08:54:16.722Z,3.50
2023-02-21T08:55:19.596Z,2.50
2023-02-21T08:56:23.902Z,3.00
2023-02-21T08:57:27.385Z,4.00
2023-02-21T08:58:30.743Z,4.50
2023-02-21T08:59:34.265Z,4.00
2023-02-21T09:00:37.618Z,3.00
2023-02-21T09:01:41.160Z,3.50
2023-02-21T09:02:44.236Z,4.50
2023-02-21T09:03:50.978Z,5.00
2023-02-21T09:04:54.570Z,5.00
2023-02-21T09:05:58.055Z,6.00
2023-02-21T09:07:02.294Z,6.50
2023-02-21T09:08:06.215Z,5.50
2023-02-21T09:15:52.673Z,9.00
2023-02-21T09:16:57.531Z,12.50
2023-02-21T09:18:01.412Z,10.00
2023-02-21T09:19:05.009Z,11.75
2023-02-21T09:20:08.830Z,15.50
2023-02-21T09:21:12.990Z,14.25
2023-02-21T09:22:16.836Z,12.00
2023-02-21T09:23:20.604Z,16.25
2023-02-21T09:24:24.001Z,17.75
2023-02-21T09:25:28.086Z,17.00
2023-02-21T09:26:33.620Z,17.75
2023-02-21T09:27:37.349Z,14.25
2023-02-21T09:28:41.009Z,15.00
2023-02-21T09:29:46.724Z,16.25
2023-02-21T09:30:49.624Z,15.00
2023-02-21T09:31:53.154Z,14.50
2023-02-21T09:32:56.895Z,16.75
2023-02-21T09:34:00.631Z,16.50
2023-02-21T09:35:04.120Z,15.00
2023-02-21T09:36:07.618Z,16.00
2023-02-21T09:37:12.014Z,16.00
2023-02-21T09:38:15.624Z,16.00
2023-02-21T09:39:18.869Z,15.25
2023-02-21T09:40:22.071Z,15.25
2023-02-21T09:41:24.999Z,16.50
2023-02-21T09:42:28.153Z,16.25
2023-02-21T09:43:31.160Z,15.50
2023-02-21T09:44:34.230Z,15.00
2023-02-21T09:45:37.253Z,14.50
2023-02-21T09:46:40.431Z,14.00
2023-02-21T09:47:43.524Z,14.00
2023-02-21T09:48:46.753Z,14.75
2023-02-21T09:49:49.778Z,18.00
2023-02-21T09:50:52.759Z,14.75
2023-02-21T09:51:55.814Z,14.40
2023-02-21T09:52:58.593Z,18.25
2023-02-21T09:54:01.603Z,16.75
2023-02-21T09:55:04.572Z,13.00
2023-02-21T09:56:07.404Z,13.00
2023-02-21T09:57:10.496Z,14.75
2023-02-21T09:58:13.466Z,15.25
2023-02-21T09:59:16.442Z,11.00
2023-02-21T10:00:19.354Z,10.75
2023-02-21T10:01:22.465Z,11.00
2023-02-21T10:02:25.497Z,11.50
2023-02-21T10:03:28.604Z,12.50
2023-02-21T10:04:31.417Z,10.75
2023-02-21T10:05:49.845Z,11.00
2023-02-21T10:06:52.651Z,12.00
2023-02-21T10:07:55.691Z,11.00
2023-02-21T10:08:58.558Z,12.50
2023-02-21T10:10:01.341Z,14.00
2023-02-21T10:11:04.170Z,14.00
2023-02-21T10:12:07.119Z,12.25
2023-02-21T10:13:09.907Z,13.50
2023-02-21T10:14:12.631Z,11.50
2023-02-21T10:15:15.416Z,9.20
2023-02-21T10:16:18.154Z,10.50
2023-02-21T10:17:21.255Z,11.00
2023-02-21T10:18:27.521Z,10.00
2023-02-21T10:19:29.918Z,12.25
2023-02-21T10:20:42.232Z,12.25
2023-02-21T10:21:53.419Z,13.50
2023-02-21T10:22:56.547Z,12.25
2023-02-21T10:23:59.522Z,11.25
2023-02-21T10:25:02.568Z,10.75
2023-02-21T10:26:05.633Z,13.00
2023-02-21T10:27:08.509Z,12.50
2023-02-21T10:28:11.504Z,9.50
2023-02-21T10:29:14.673Z,10.50
2023-02-21T10:30:17.741Z,11.00
2023-02-21T10:31:20.894Z,10.25
2023-02-21T10:32:23.748Z,10.75
2023-02-21T10:33:26.797Z,10.50
2023-02-21T10:34:29.615Z,11.25
2023-02-21T10:35:32.649Z,11.00
2023-02-21T10:36:35.413Z,11.50
2023-02-21T10:37:38.271Z,10.75
2023-02-21T10:38:41.058Z,8.25
2023-02-21T10:39:43.916Z,9.00
2023-02-21T10:40:46.790Z,8.75
2023-02-21T10:41:52.253Z,9.75
2023-02-21T10:42:57.974Z,8.50
2023-02-21T10:44:00.744Z,10.00
2023-02-21T10:45:03.647Z,12.00
2023-02-21T10:46:06.692Z,9.00
2023-02-21T10:47:09.541Z,11.00
2023-02-21T10:48:12.194Z,12.50
2023-02-21T10:49:14.926Z,12.00
2023-02-21T10:50:17.665Z,12.25
2023-02-21T10:51:20.305Z,11.25
2023-02-21T10:52:23.101Z,12.00
2023-02-21T10:53:25.985Z,11.00
2023-02-21T10:54:28.764Z,11.25
2023-02-21T10:55:33.346Z,10.00
2023-02-21T10:56:35.536Z,11.25
2023-02-21T10:57:38.721Z,11.50
2023-02-21T10:58:41.485Z,10.00
2023-02-21T10:59:44.365Z,13.75
2023-02-21T11:00:47.123Z,12.00
2023-02-21T11:01:49.870Z,9.25
2023-02-21T11:02:52.598Z,12.25
2023-02-21T11:03:55.253Z,16.75
2023-02-21T11:04:58.410Z,15.00
2023-02-21T11:06:01.394Z,14.75
2023-02-21T11:07:04.337Z,16.00
2023-02-21T11:08:07.310Z,15.00
2023-02-21T11:09:10.266Z,18.50
2023-02-21T11:10:13.190Z,15.50
2023-02-21T11:11:16.362Z,16.50
2023-02-21T11:12:19.388Z,13.00
2023-02-21T11:13:22.328Z,13.75
2023-02-21T11:14:25.112Z,12.50
2023-02-21T11:15:27.968Z,10.75
2023-02-21T11:16:30.983Z,12.50
2023-02-21T11:17:33.972Z,14.00
2023-02-21T11:18:43.593Z,12.00
2023-02-21T11:19:46.287Z,10.00
2023-02-21T11:20:49.181Z,11.75
2023-02-21T11:21:51.934Z,14.00
2023-02-21T11:22:54.737Z,14.00
2023-02-21T11:23:57.613Z,11.50
2023-02-21T11:25:00.557Z,13.50
2023-02-21T11:26:03.249Z,12.00
2023-02-21T11:27:06.116Z,11.75
2023-02-21T11:28:08.855Z,11.00
2023-02-21T11:29:11.673Z,11.00
2023-02-21T11:30:14.925Z,10.00
2023-02-21T11:31:18.200Z,9.25
2023-02-21T11:32:22.641Z,9.00
2023-02-21T11:33:25.491Z,9.75
2023-02-21T11:34:28.409Z,9.75
2023-02-21T11:35:34.229Z,10.00
2023-02-21T11:36:54.339Z,12.50
2023-02-21T11:37:57.433Z,11.25
2023-02-21T11:39:00.626Z,12.00
2023-02-21T11:40:03.737Z,10.00
2023-02-21T11:41:12.393Z,9.25
2023-02-21T11:44:57.659Z,12.25
2023-02-21T11:46:00.543Z,10.25
2023-02-21T11:47:03.605Z,9.50
2023-02-21T11:52:10.303Z,11.50
2023-02-21T11:53:13.635Z,12.25
2023-02-21T11:57:14.880Z,13.50
2023-02-21T11:58:17.697Z,10.25
2023-02-21T11:59:20.495Z,12.50
2023-02-21T12:00:23.490Z,13.00
2023-02-21T12:01:26.239Z,10.25
2023-02-21T12:02:28.939Z,10.25
2023-02-21T12:03:31.631Z,11.75
2023-02-21T12:04:34.394Z,12.50
2023-02-21T12:05:37.243Z,10.75
2023-02-21T12:06:39.936Z,11.50
2023-02-21T12:07:42.734Z,13.50
2023-02-21T12:08:45.533Z,12.75
2023-02-21T12:09:48.409Z,11.80
2023-02-21T12:10:53.905Z,11.50
2023-02-21T12:11:57.194Z,12.00
2023-02-21T12:12:59.999Z,10.00
2023-02-21T12:14:02.622Z,11.00
2023-02-21T12:15:05.320Z,13.00
2023-02-21T12:16:08.302Z,13.00
2023-02-21T12:17:11.976Z,10.50
2023-02-21T12:18:15.139Z,9.50
2023-02-21T12:19:17.773Z,9.50
2023-02-21T12:20:20.627Z,11.50
2023-02-21T12:21:23.322Z,9.00
2023-02-21T12:22:26.091Z,9.25
2023-02-21T12:23:29.035Z,11.00
2023-02-21T12:24:33.629Z,10.25
2023-02-21T12:25:36.250Z,9.00
2023-02-21T12:26:39.113Z,13.75
2023-02-21T12:27:41.886Z,14.00
2023-02-21T12:28:44.704Z,11.00
2023-02-21T12:29:47.486Z,8.25
2023-02-21T12:30:50.189Z,11.00
2023-02-21T12:31:53.098Z,13.50
2023-02-21T12:32:55.824Z,13.25
2023-02-21T12:33:58.738Z,13.50
2023-02-21T12:35:01.532Z,13.00
2023-02-21T12:36:04.467Z,12.50
2023-02-21T12:37:07.327Z,12.00
2023-02-21T12:38:10.129Z,12.00
2023-02-21T12:39:12.960Z,15.00
2023-02-21T12:40:15.850Z,17.00
2023-02-21T12:41:18.686Z,14.50
2023-02-21T12:42:21.426Z,12.00
2023-02-21T12:43:24.099Z,13.00
2023-02-21T12:44:26.861Z,12.50
2023-02-21T12:45:29.706Z,15.00
2023-02-21T12:46:32.834Z,15.50
2023-02-21T12:47:35.937Z,13.50
2023-02-21T12:48:38.840Z,14.25
2023-02-21T12:49:42.011Z,16.50
2023-02-21T12:50:45.013Z,16.00
2023-02-21T12:51:47.847Z,14.00
2023-02-21T12:52:50.854Z,15.25
2023-02-21T12:53:53.841Z,18.25
2023-02-21T12:54:56.863Z,16.50
2023-02-21T12:55:59.822Z,18.00
2023-02-21T12:57:02.838Z,17.50
2023-02-21T12:58:05.809Z,13.50
2023-02-21T12:59:08.710Z,12.50
2023-02-21T13:00:11.779Z,12.00
2023-02-21T13:01:15.490Z,11.50
2023-02-21T13:02:18.677Z,11.50
2023-02-21T13:03:21.429Z,12.50
2023-02-21T13:04:24.188Z,12.00
2023-02-21T13:05:27.199Z,11.50
2023-02-21T13:06:31.499Z,11.50
2023-02-21T13:07:34.333Z,11.25
2023-02-21T13:08:37.273Z,10.50
2023-02-21T13:09:40.398Z,11.00
2023-02-21T13:10:43.375Z,10.75
2023-02-21T13:11:46.370Z,10.50
2023-02-21T13:12:49.393Z,11.50
2023-02-21T13:13:52.392Z,9.50
2023-02-21T13:14:55.341Z,10.33
2023-02-21T13:15:58.170Z,8.50
2023-02-21T13:17:01.165Z,8.75
2023-02-21T13:18:04.250Z,11.25
2023-02-21T13:19:07.166Z,11.50
2023-02-21T13:20:10.061Z,11.00
2023-02-21T13:21:13.261Z,12.50
2023-02-21T13:22:16.148Z,11.50
2023-02-21T13:23:19.191Z,10.50
2023-02-21T13:24:22.314Z,12.50
2023-02-21T13:25:25.294Z,13.50
2023-02-21T13:26:28.374Z,12.50
2023-02-21T13:27:31.536Z,9.00
2023-02-21T13:28:34.620Z,10.50
2023-02-21T13:29:38.998Z,12.00
2023-02-21T13:30:41.925Z,9.00
2023-02-21T13:31:45.128Z,10.00
2023-02-21T13:32:48.367Z,10.75
2023-02-21T13:33:51.344Z,9.50
2023-02-21T13:34:54.279Z,11.00
2023-02-21T13:35:57.353Z,11.00
2023-02-21T13:37:00.416Z,9.00
2023-02-21T13:38:03.184Z,10.00
2023-02-21T13:39:13.603Z,10.00
2023-02-21T13:40:16.520Z,8.25
2023-02-21T13:41:19.877Z,9.75
2023-02-21T13:42:23.015Z,11.50
2023-02-21T13:43:26.016Z,10.00
2023-02-21T13:44:29.104Z,11.00
2023-02-21T13:45:32.260Z,14.50
2023-02-21T13:46:35.485Z,12.50
2023-02-21T13:47:38.830Z,9.50
2023-02-21T13:48:41.568Z,10.00
2023-02-21T13:49:44.571Z,9.50
2023-02-21T13:50:47.640Z,9.75
2023-02-21T13:51:50.809Z,10.00
2023-02-21T13:52:53.796Z,9.50
2023-02-21T13:53:56.857Z,8.50
2023-02-21T13:54:59.519Z,8.25
2023-02-21T13:56:02.215Z,8.00
2023-02-21T13:57:05.037Z,5.75
2023-02-21T13:58:07.765Z,7.25
2023-02-21T13:59:10.518Z,9.00
2023-02-21T14:00:13.275Z,9.00
2023-02-21T14:01:16.199Z,7.75
2023-02-21T14:02:19.038Z,8.50
2023-02-21T14:03:21.955Z,8.50
2023-02-21T14:04:24.756Z,6.50
2023-02-21T14:05:29.131Z,9.25
2023-02-21T14:06:31.968Z,10.00
2023-02-21T14:07:34.873Z,9.00
2023-02-21T14:08:38.015Z,9.00
2023-02-21T14:09:41.222Z,7.50
2023-02-21T14:10:44.050Z,8.00
2023-02-21T14:11:47.351Z,7.00
2023-02-21T14:12:50.533Z,7.00
2023-02-21T14:13:54.562Z,8.00
2023-02-21T14:14:57.851Z,8.00
2023-02-21T14:16:00.858Z,8.25
2023-02-21T14:17:04.013Z,8.25
2023-02-21T14:18:07.151Z,8.25
2023-02-21T14:19:10.545Z,8.00
2023-02-21T14:21:34.993Z,8.00
2023-02-21T14:22:37.994Z,11.25
2023-02-21T14:23:40.722Z,11.50
2023-02-21T14:24:43.683Z,11.00
2023-02-21T14:25:46.376Z,13.00
2023-02-21T14:26:49.173Z,10.25
2023-02-21T14:27:53.483Z,12.25
2023-02-21T14:28:55.816Z,10.50
2023-02-21T14:29:58.564Z,12.00
2023-02-21T14:31:01.324Z,12.50
2023-02-21T14:32:04.305Z,12.00
2023-02-21T14:33:07.035Z,13.00
2023-02-21T14:34:09.805Z,14.00
2023-02-21T14:35:12.558Z,14.25
2023-02-21T14:36:15.316Z,14.75
2023-02-21T14:37:17.920Z,17.25
2023-02-21T14:38:20.884Z,15.75
2023-02-21T14:39:24.199Z,13.20
2023-02-21T14:40:27.163Z,14.00
2023-02-21T14:41:29.989Z,11.50
2023-02-21T14:42:32.995Z,11.00
2023-02-21T14:43:35.967Z,14.00
2023-02-21T14:44:38.890Z,15.75
2023-02-21T14:45:41.832Z,15.50
2023-02-21T14:46:44.763Z,12.75
2023-02-21T14:47:47.744Z,14.00
2023-02-21T14:48:50.843Z,16.50
2023-02-21T14:49:53.739Z,14.00
2023-02-21T14:50:56.588Z,13.50
2023-02-21T14:51:59.721Z,13.50
2023-02-21T14:53:02.655Z,11.00
2023-02-21T14:54:05.607Z,14.00
2023-02-21T14:55:08.593Z,13.50
2023-02-21T14:56:11.597Z,11.50
2023-02-21T14:57:14.644Z,12.50
2023-02-21T14:58:17.703Z,11.75
2023-02-21T14:59:20.691Z,11.50
2023-02-21T15:00:23.670Z,14.25
2023-02-21T15:01:26.647Z,13.00
2023-02-21T15:02:29.567Z,9.00
2023-02-21T15:03:32.574Z,9.50
2023-02-21T15:04:35.761Z,8.50
2023-02-21T15:05:38.768Z,8.50
2023-02-21T15:06:41.698Z,9.00
2023-02-21T15:07:44.584Z,9.00
2023-02-21T15:08:47.483Z,7.00
2023-02-21T15:09:50.468Z,7.00
2023-02-21T15:10:53.457Z,6.50
2023-02-21T15:11:56.362Z,7.00
2023-02-21T15:12:59.147Z,7.00
2023-02-21T15:14:02.114Z,6.00
2023-02-21T15:15:05.026Z,6.50
2023-02-21T15:16:08.263Z,7.25
2023-02-21T15:17:12.071Z,8.50
2023-02-21T15:18:15.573Z,9.00
2023-02-21T15:19:18.829Z,8.50
2023-02-21T15:20:21.873Z,10.00
2023-02-21T15:21:25.367Z,7.00
2023-02-21T15:22:28.334Z,5.25
2023-02-21T15:23:31.407Z,7.50
2023-02-21T15:24:36.017Z,7.00
2023-02-21T15:25:38.504Z,6.25
2023-02-21T15:26:41.425Z,6.50
2023-02-21T15:27:44.320Z,6.00
2023-02-21T15:28:47.325Z,5.75
2023-02-21T15:29:50.204Z,7.00
2023-02-21T15:30:53.324Z,7.00
2023-02-21T15:31:56.444Z,6.50
2023-02-21T15:32:59.717Z,7.75
2023-02-21T15:34:02.688Z,5.75
2023-02-21T15:35:05.615Z,5.25
2023-02-21T15:36:08.651Z,6.00
2023-02-21T15:37:11.649Z,5.50
2023-02-21T15:38:14.706Z,6.00
2023-02-21T15:39:17.705Z,4.50
2023-02-21T15:40:20.728Z,6.00
2023-02-21T15:41:23.750Z,5.00
2023-02-21T15:42:26.734Z,6.25
2023-02-21T15:43:29.797Z,7.50
2023-02-21T15:44:33.017Z,8.00
2023-02-21T15:45:36.160Z,8.75
2023-02-21T15:46:39.254Z,4.50
2023-02-21T15:47:42.130Z,6.00
2023-02-21T15:48:45.270Z,6.00
2023-02-21T15:49:48.535Z,4.50
2023-02-21T15:50:51.548Z,6.00
2023-02-21T15:53:15.211Z,5.00
2023-02-21T15:54:18.212Z,7.25
2023-02-21T15:55:21.251Z,7.50
2023-02-21T15:56:24.224Z,5.25
2023-02-21T15:57:27.293Z,5.00
2023-02-21T15:58:30.269Z,5.75
2023-02-21T15:59:33.407Z,4.75
2023-02-21T16:00:36.452Z,5.50
2023-02-21T16:01:39.576Z,5.40
2023-02-21T16:02:42.816Z,5.00
2023-02-21T16:03:45.827Z,4.50
2023-02-21T16:06:09.401Z,8.50
2023-02-21T16:07:30.056Z,6.50
2023-02-21T16:08:33.194Z,4.50
2023-02-21T16:09:36.264Z,5.75
2023-02-21T16:10:39.308Z,6.00
2023-02-21T16:11:42.071Z,6.50
2023-02-21T16:12:45.124Z,5.00
2023-02-21T16:13:48.309Z,5.50
2023-02-21T16:14:51.563Z,4.50
2023-02-21T16:15:54.828Z,4.50
2023-02-21T16:16:58.485Z,5.00
2023-02-21T16:18:02.209Z,4.50
2023-02-21T16:19:05.393Z,7.50
2023-02-21T16:20:12.535Z,5.50
2023-02-21T16:21:15.593Z,5.00
2023-02-21T16:22:22.286Z,5.00
2023-02-21T16:23:25.575Z,4.50
2023-02-21T16:24:28.807Z,4.00
2023-02-21T16:25:32.319Z,2.50
2023-02-21T16:26:35.482Z,4.75
2023-02-21T16:27:38.614Z,6.75
2023-02-21T16:28:42.417Z,5.50
2023-02-21T16:29:45.493Z,4.00
2023-02-21T16:30:51.362Z,3.75
2023-02-21T16:31:55.092Z,4.00
2023-02-21T16:32:59.968Z,3.00
2023-02-21T16:35:23.509Z,3.50
2023-02-21T16:36:26.814Z,4.00
2023-02-21T16:39:36.711Z,6.00
2023-02-21T16:40:39.943Z,5.50
2023-02-21T16:41:43.277Z,3.50
2023-02-21T16:42:46.449Z,3.25
2023-02-21T16:43:51.664Z,2.00
2023-02-21T16:44:54.656Z,4.00
2023-02-21T16:45:58.289Z,3.25
2023-02-21T16:47:01.594Z,3.25
2023-02-21T16:48:06.028Z,5.75
2023-02-21T16:49:10.992Z,4.75
2023-02-21T16:50:16.488Z,6.00
2023-02-21T16:51:20.772Z,6.50
2023-02-21T16:52:24.529Z,4.50
2023-02-21T16:53:28.134Z,5.00
2023-02-21T16:54:31.932Z,4.25
2023-02-21T16:55:35.596Z,4.50
2023-02-21T16:56:39.006Z,5.00
2023-02-21T16:57:43.193Z,2.75
2023-02-21T16:58:46.784Z,4.50
2023-02-21T16:59:50.388Z,5.00
2023-02-21T17:00:54.708Z,5.50
2023-02-21T17:01:58.933Z,5.25
2023-02-21T17:03:02.932Z,5.00
2023-02-21T17:04:06.797Z,3.50
2023-02-21T17:05:10.630Z,3.00
2023-02-21T17:06:14.797Z,3.00
2023-02-21T17:07:18.634Z,4.00
2023-02-21T17:08:22.394Z,6.00
2023-02-21T17:09:26.092Z,6.50
2023-02-21T17:10:29.498Z,4.75
2023-02-21T17:11:33.157Z,8.25
2023-02-21T17:12:36.974Z,8.00
2023-02-21T17:13:40.341Z,6.75
2023-02-21T17:14:44.068Z,8.00
2023-02-21T17:15:47.894Z,4.50
2023-02-21T17:16:52.041Z,4.25
2023-02-21T17:17:56.269Z,7.00
2023-02-21T17:18:59.869Z,7.00
2023-02-21T17:20:03.524Z,6.50
2023-02-21T17:21:07.412Z,6.25
2023-02-21T17:22:11.432Z,5.50
2023-02-21T17:23:15.325Z,4.50
2023-02-21T17:24:19.013Z,5.25
2023-02-21T17:25:23.447Z,6.00
2023-02-21T17:26:27.756Z,4.50
2023-02-21T17:27:31.255Z,5.50
2023-02-21T17:28:34.729Z,6.00
2023-02-21T17:29:37.936Z,5.00
2023-02-21T17:30:41.460Z,4.50
2023-02-21T17:31:45.468Z,4.75
2023-02-21T17:32:49.395Z,5.00
2023-02-21T17:33:53.115Z,7.50
2023-02-21T17:34:56.880Z,5.50
2023-02-21T17:36:00.165Z,6.50
2023-02-21T17:37:03.904Z,3.50
2023-02-21T17:38:07.657Z,4.00
2023-02-21T17:39:10.659Z,7.00
2023-02-21T17:40:14.115Z,5.50
2023-02-21T17:41:17.888Z,3.00
2023-02-21T17:42:21.200Z,3.50
2023-02-21T17:43:25.447Z,5.80
2023-02-21T17:44:28.998Z,6.00
2023-02-21T17:45:32.584Z,3.50
2023-02-21T17:46:36.343Z,2.00
2023-02-21T17:47:39.774Z,4.00
2023-02-21T17:48:43.268Z,3.25
2023-02-21T17:49:47.772Z,3.50
2023-02-21T17:50:51.781Z,4.25
2023-02-21T17:51:55.164Z,2.75
2023-02-21T17:52:59.072Z,2.50
2023-02-21T17:54:03.079Z,3.50
2023-02-21T17:55:06.596Z,3.25
2023-02-21T17:56:10.047Z,1.50
2023-02-21T17:57:13.531Z,2.50
2023-02-21T17:58:17.127Z,3.00
2023-02-21T17:59:20.717Z,5.00
2023-02-21T18:00:25.194Z,5.00
2023-02-21T18:01:29.677Z,3.50
2023-02-21T18:02:33.237Z,4.00
2023-02-21T18:03:36.727Z,3.25
2023-02-21T18:04:40.694Z,4.50
2023-02-21T18:05:44.047Z,4.50
2023-02-21T18:06:47.635Z,4.00
2023-02-21T18:07:51.205Z,4.75
2023-02-21T18:08:55.293Z,6.00
2023-02-21T18:09:59.315Z,6.25
2023-02-21T18:11:02.879Z,4.50
2023-02-21T18:12:06.478Z,3.50
2023-02-21T18:13:09.961Z,3.00
2023-02-21T18:14:16.623Z,3.00
2023-02-21T18:15:20.218Z,4.50
2023-02-21T18:16:23.813Z,4.00
2023-02-21T18:17:27.835Z,6.00
2023-02-21T18:18:31.655Z,6.00
2023-02-21T18:19:35.830Z,5.00
2023-02-21T18:20:40.441Z,4.00
2023-02-21T18:21:44.133Z,4.00
2023-02-21T18:22:48.395Z,4.50
2023-02-21T18:23:52.122Z,6.50
2023-02-21T18:24:55.683Z,6.75
2023-02-21T18:25:59.222Z,3.50
2023-02-21T18:27:03.018Z,4.00
2023-02-21T18:28:06.519Z,4.00
2023-02-21T18:29:11.119Z,3.75
2023-02-21T18:30:15.262Z,5.00
2023-02-21T18:31:18.778Z,5.00
2023-02-21T18:32:23.371Z,4.25
2023-02-21T18:33:26.374Z,3.00
2023-02-21T18:34:29.752Z,3.75
2023-02-21T18:35:33.194Z,4.00
2023-02-21T18:36:36.492Z,5.00
2023-02-21T18:37:39.850Z,5.00
2023-02-21T18:38:45.922Z,4.50
2023-02-21T18:39:49.083Z,6.25
2023-02-21T18:40:52.517Z,6.00
2023-02-21T18:41:56.065Z,4.00
2023-02-21T18:43:00.024Z,3.50
2023-02-21T18:44:04.364Z,5.50
2023-02-21T18:45:09.117Z,6.50
2023-02-21T18:46:13.707Z,5.00
2023-02-21T18:47:17.795Z,5.25
2023-02-21T18:48:21.898Z,5.75
2023-02-21T18:49:28.354Z,4.50
2023-02-21T18:50:32.376Z,3.25
2023-02-21T18:51:36.059Z,3.75
2023-02-21T18:52:40.884Z,5.50
2023-02-21T18:53:44.421Z,5.75
2023-02-21T18:54:48.091Z,6.00
2023-02-21T18:55:51.801Z,4.00
2023-02-21T18:56:55.634Z,3.50
2023-02-21T18:57:59.221Z,3.00
2023-02-21T18:59:02.832Z,2.50
2023-02-21T19:00:06.659Z,3.00
2023-02-21T19:01:13.271Z,4.50
2023-02-21T19:02:16.912Z,3.50
2023-02-21T19:03:21.294Z,4.00
2023-02-21T19:04:24.998Z,6.50
2023-02-21T19:05:29.133Z,5.50
2023-02-21T19:06:32.949Z,5.50
2023-02-21T19:07:46.627Z,4.25
2023-02-21T19:10:22.707Z,4.50
2023-02-21T19:11:27.717Z,6.50
2023-02-21T19:12:37.038Z,5.50
2023-02-21T19:15:01.660Z,2.00
2023-02-21T19:16:18.356Z,5.00
2023-02-21T19:18:46.411Z,6.50
2023-02-21T20:02:50.938Z,5.50
2023-02-21T21:22:48.535Z,3.50
2023-02-21T21:25:13.876Z,2.00
2023-02-21T21:26:27.568Z,6.25
2023-02-21T21:29:04.173Z,4.25
2023-02-21T21:33:00.829Z,3.50
2023-02-21T21:34:13.611Z,5.00
2023-02-21T21:38:11.143Z,4.75
2023-02-21T21:43:17.711Z,2.50
2023-02-21T21:44:21.479Z,4.00
2023-02-21T21:48:12.983Z,9.25
2023-02-21T21:49:25.079Z,4.50
2023-02-21T21:50:36.469Z,6.00
2023-02-21T21:51:52.763Z,6.50
2023-02-21T21:55:37.174Z,7.75
2023-02-21T21:58:11.618Z,5.75
2023-02-21T21:59:14.969Z,5.00
2023-02-21T22:00:22.303Z,4.25
2023-02-21T22:01:44.110Z,3.00
2023-02-21T22:24:45.333Z,3.00
2023-02-21T22:44:08.277Z,6.00
2023-02-21T22:45:15.145Z,7.50
2023-02-21T22:46:28.913Z,3.00
2023-02-21T22:47:39.952Z,4.00
2023-02-21T22:48:47.017Z,2.75
2023-02-21T22:49:53.809Z,5.25
2023-02-21T22:50:58.628Z,3.75
2023-02-21T22:53:22.712Z,4.00
2023-02-21T22:54:27.615Z,2.75
2023-02-21T22:55:41.063Z,4.00
2023-02-21T22:56:43.940Z,5.50
2023-02-21T22:57:47.609Z,3.50
2023-02-21T22:58:57.041Z,3.50
2023-02-21T23:00:01.954Z,3.50
2023-02-21T23:01:11.686Z,4.50
2023-02-21T23:02:29.665Z,2.50
2023-02-21T23:03:43.038Z,2.25
2023-02-21T23:06:15.958Z,3.50
2023-02-21T23:08:52.923Z,3.00
2023-02-21T23:10:08.632Z,3.50
2023-02-21T23:16:49.537Z,4.00
2023-02-21T23:19:24.306Z,3.25
2023-02-21T23:20:28.844Z,3.00
2023-02-21T23:21:47.089Z,4.00
2023-02-21T23:29:46.550Z,6.25
2023-02-21T23:31:03.196Z,2.50
2023-02-21T23:33:37.030Z,4.25
2023-02-21T23:36:01.752Z,4.50
2023-02-21T23:37:12.808Z,4.50
2023-02-21T23:39:38.872Z,3.50
2023-02-21T23:40:48.951Z,3.50
2023-02-21T23:41:55.911Z,2.50
2023-02-21T23:43:00.287Z,4.75
2023-02-21T23:44:07.555Z,5.00
2023-02-21T23:45:16.804Z,3.50
2023-02-21T23:47:43.320Z,3.50
2023-02-21T23:48:57.620Z,4.75
2023-02-21T23:50:09.324Z,2.50
2023-02-21T23:51:27.842Z,1.00
2023-02-21T23:53:56.337Z,6.00
